createdAt,value
2023-05-03T00:01:01.652Z,96847.38
2023-05-03T00:02:04.775Z,96839.72
2023-05-03T00:03:11.141Z,96842.25
2023-05-03T00:04:15.278Z,96837.22
2023-05-03T00:05:20.353Z,96841.56
2023-05-03T00:06:22.629Z,96843.13
2023-05-03T00:07:27.598Z,96841.38
2023-05-03T00:08:29.790Z,96838.81
2023-05-03T00:09:37.016Z,96843.13
2023-05-03T00:10:39.792Z,96850.03
2023-05-03T00:11:44.927Z,96845.81
2023-05-03T00:12:49.682Z,96846.72
2023-05-03T00:13:54.368Z,96846.63
2023-05-03T00:14:56.805Z,96845.81
2023-05-03T00:16:02.054Z,96840.66
2023-05-03T00:17:04.624Z,96844.13
2023-05-03T00:18:09.973Z,96844.88
2023-05-03T00:19:24.192Z,96849.13
2023-05-03T00:20:33.520Z,96848.31
2023-05-03T00:21:35.766Z,96846.47
2023-05-03T00:22:40.600Z,96840.53
2023-05-03T00:23:42.755Z,96834.47
2023-05-03T00:24:47.692Z,96840.41
2023-05-03T00:25:52.911Z,96839.47
2023-05-03T00:26:57.813Z,96846.28
2023-05-03T00:28:02.585Z,96842.63
2023-05-03T00:29:07.507Z,96835.69
2023-05-03T00:30:10.665Z,96842.50
2023-05-03T00:31:15.450Z,96834.66
2023-05-03T00:32:17.840Z,96843.22
2023-05-03T00:33:22.617Z,96839.81
2023-05-03T00:34:24.705Z,96835.44
2023-05-03T00:35:30.602Z,96833.53
2023-05-03T00:36:33.849Z,96840.28
2023-05-03T00:37:40.603Z,96831.44
2023-05-03T00:38:43.633Z,96831.25
2023-05-03T00:39:48.362Z,96838.03
2023-05-03T00:40:54.671Z,96829.41
2023-05-03T00:42:00.577Z,96831.09
2023-05-03T00:43:05.321Z,96834.47
2023-05-03T00:44:11.851Z,96830.03
2023-05-03T00:45:14.034Z,96823.19
2023-05-03T00:46:19.100Z,96826.50
2023-05-03T00:47:23.101Z,96824.78
2023-05-03T00:48:28.278Z,96815.25
2023-05-03T00:49:30.866Z,96821.34
2023-05-03T00:50:36.205Z,96820.50
2023-05-03T00:51:38.471Z,96823.84
2023-05-03T00:52:44.506Z,96817.00
2023-05-03T00:53:47.140Z,96817.13
2023-05-03T00:54:52.368Z,96817.03
2023-05-03T00:55:55.677Z,96815.34
2023-05-03T00:57:02.337Z,96821.41
2023-05-03T00:58:07.131Z,96810.19
2023-05-03T00:59:12.851Z,96818.75
2023-05-03T01:00:19.519Z,96820.38
2023-05-03T01:01:25.478Z,96821.41
2023-05-03T01:02:28.412Z,96821.47
2023-05-03T01:03:33.704Z,96819.81
2023-05-03T01:04:37.427Z,96822.47
2023-05-03T01:05:53.317Z,96816.53
2023-05-03T01:07:08.566Z,96815.66
2023-05-03T01:08:23.662Z,96812.22
2023-05-03T01:09:34.887Z,96824.31
2023-05-03T01:10:52.730Z,96816.63
2023-05-03T01:12:07.341Z,96815.91
2023-05-03T01:13:25.906Z,96812.50
2023-05-03T01:14:35.549Z,96811.59
2023-05-03T01:15:49.088Z,96809.03
2023-05-03T01:16:56.995Z,96814.44
2023-05-03T01:18:10.478Z,96811.13
2023-05-03T01:19:26.776Z,96810.31
2023-05-03T01:20:31.255Z,96812.19
2023-05-03T01:21:37.509Z,96809.69
2023-05-03T01:22:47.360Z,96815.75
2023-05-03T01:23:59.974Z,96808.88
2023-05-03T01:25:07.966Z,96808.09
2023-05-03T01:26:22.727Z,96805.50
2023-05-03T01:27:24.907Z,96809.06
2023-05-03T01:28:29.905Z,96809.06
2023-05-03T01:29:32.313Z,96804.81
2023-05-03T01:30:37.800Z,96811.75
2023-05-03T01:31:44.679Z,96810.00
2023-05-03T01:32:57.639Z,96803.28
2023-05-03T01:34:17.225Z,96800.47
2023-05-03T01:35:26.932Z,96805.06
2023-05-03T01:36:35.760Z,96795.53
2023-05-03T01:37:39.513Z,96798.41
2023-05-03T01:38:45.364Z,96805.31
2023-05-03T01:39:55.048Z,96802.81
2023-05-03T01:41:05.410Z,96794.38
2023-05-03T01:42:07.869Z,96800.56
2023-05-03T01:43:16.501Z,96798.91
2023-05-03T01:44:19.884Z,96800.75
2023-05-03T01:45:25.784Z,96801.75
2023-05-03T01:46:28.068Z,96804.31
2023-05-03T01:47:33.590Z,96801.91
2023-05-03T01:48:35.787Z,96802.84
2023-05-03T01:49:40.758Z,96796.91
2023-05-03T01:50:42.989Z,96804.75
2023-05-03T01:51:48.080Z,96802.25
2023-05-03T01:52:52.725Z,96806.66
2023-05-03T01:53:57.736Z,96805.81
2023-05-03T01:55:00.449Z,96799.75
2023-05-03T01:56:09.390Z,96801.66
2023-05-03T01:57:12.748Z,96808.59
2023-05-03T01:58:17.540Z,96805.34
2023-05-03T01:59:19.696Z,96807.19
2023-05-03T02:00:25.087Z,96815.84
2023-05-03T02:01:27.354Z,96805.75
2023-05-03T02:02:32.125Z,96806.69
2023-05-03T02:03:34.543Z,96809.41
2023-05-03T02:04:39.813Z,96813.84
2023-05-03T02:05:43.051Z,96818.31
2023-05-03T02:06:48.052Z,96816.66
2023-05-03T02:07:50.304Z,96811.66
2023-05-03T02:08:57.483Z,96809.97
2023-05-03T02:09:59.528Z,96816.03
2023-05-03T02:11:07.358Z,96813.31
2023-05-03T02:12:10.214Z,96808.22
2023-05-03T02:13:16.780Z,96811.72
2023-05-03T02:14:19.221Z,96817.63
2023-05-03T02:15:24.364Z,96822.84
2023-05-03T02:16:29.699Z,96815.19
2023-05-03T02:17:32.212Z,96816.03
2023-05-03T02:18:37.693Z,96810.94
2023-05-03T02:19:39.827Z,96822.94
2023-05-03T02:20:48.530Z,96813.53
2023-05-03T02:21:52.080Z,96810.94
2023-05-03T02:22:57.165Z,96816.94
2023-05-03T02:24:00.152Z,96819.53
2023-05-03T02:25:05.494Z,96815.28
2023-05-03T02:26:13.180Z,96810.13
2023-05-03T02:27:16.022Z,96817.84
2023-05-03T02:28:23.565Z,96818.81
2023-05-03T02:29:25.845Z,96823.91
2023-05-03T02:30:30.840Z,96821.25
2023-05-03T02:31:33.291Z,96815.28
2023-05-03T02:32:38.470Z,96815.34
2023-05-03T02:33:40.880Z,96811.91
2023-05-03T02:34:47.622Z,96818.75
2023-05-03T02:35:51.084Z,96806.75
2023-05-03T02:36:56.051Z,96815.41
2023-05-03T02:37:58.298Z,96815.41
2023-05-03T02:39:17.395Z,96811.22
2023-05-03T02:40:19.702Z,96810.47
2023-05-03T02:41:27.615Z,96818.25
2023-05-03T02:42:29.768Z,96813.19
2023-05-03T02:43:34.746Z,96809.75
2023-05-03T02:44:36.964Z,96810.59
2023-05-03T02:45:41.818Z,96815.72
2023-05-03T02:46:44.118Z,96806.16
2023-05-03T02:47:49.262Z,96815.59
2023-05-03T02:48:51.831Z,96807.81
2023-05-03T02:49:56.850Z,96803.50
2023-05-03T02:51:01.514Z,96806.94
2023-05-03T02:52:06.666Z,96808.66
2023-05-03T02:53:09.068Z,96808.66
2023-05-03T02:54:13.922Z,96812.94
2023-05-03T02:55:16.911Z,96817.34
2023-05-03T02:56:21.886Z,96818.13
2023-05-03T02:57:27.443Z,96811.34
2023-05-03T02:58:34.262Z,96816.44
2023-05-03T02:59:37.150Z,96817.28
2023-05-03T03:00:42.171Z,96816.53
2023-05-03T03:01:46.284Z,96822.69
2023-05-03T03:02:51.475Z,96814.97
2023-05-03T03:03:53.930Z,96820.13
2023-05-03T03:05:00.593Z,96819.28
2023-05-03T03:06:03.199Z,96821.78
2023-05-03T03:07:12.029Z,96814.91
2023-05-03T03:08:14.229Z,96825.28
2023-05-03T03:09:19.307Z,96823.59
2023-05-03T03:10:21.545Z,96820.13
2023-05-03T03:11:27.087Z,96817.63
2023-05-03T03:12:31.967Z,96817.66
2023-05-03T03:13:40.010Z,96816.75
2023-05-03T03:14:44.274Z,96816.63
2023-05-03T03:15:49.094Z,96810.69
2023-05-03T03:16:53.929Z,96811.56
2023-05-03T03:17:59.006Z,96819.09
2023-05-03T03:19:01.219Z,96807.22
2023-05-03T03:20:07.754Z,96808.97
2023-05-03T03:21:10.098Z,96810.66
2023-05-03T03:22:15.039Z,96806.50
2023-05-03T03:23:17.266Z,96809.91
2023-05-03T03:24:22.497Z,96809.06
2023-05-03T03:25:24.827Z,96815.94
2023-05-03T03:26:29.887Z,96802.28
2023-05-03T03:27:35.244Z,96805.59
2023-05-03T03:28:40.912Z,96809.84
2023-05-03T03:29:43.078Z,96802.97
2023-05-03T03:30:49.851Z,96800.47
2023-05-03T03:31:52.274Z,96809.97
2023-05-03T03:32:57.246Z,96810.03
2023-05-03T03:33:59.358Z,96804.03
2023-05-03T03:35:05.968Z,96809.19
2023-05-03T03:36:11.590Z,96799.88
2023-05-03T03:37:16.310Z,96814.44
2023-05-03T03:38:18.460Z,96816.13
2023-05-03T03:39:27.096Z,96811.88
2023-05-03T03:40:29.159Z,96817.09
2023-05-03T03:41:34.045Z,96812.84
2023-05-03T03:42:40.080Z,96813.69
2023-05-03T03:43:45.300Z,96815.50
2023-05-03T03:44:47.586Z,96818.13
2023-05-03T03:45:52.539Z,96818.06
2023-05-03T03:46:54.702Z,96824.94
2023-05-03T03:47:59.921Z,96813.88
2023-05-03T03:49:02.031Z,96819.81
2023-05-03T03:50:07.721Z,96819.03
2023-05-03T03:51:09.801Z,96819.88
2023-05-03T03:52:14.767Z,96819.91
2023-05-03T03:53:16.924Z,96828.56
2023-05-03T03:54:21.829Z,96820.06
2023-05-03T03:55:24.094Z,96821.91
2023-05-03T03:56:29.055Z,96825.34
2023-05-03T03:57:32.138Z,96822.72
2023-05-03T03:58:39.490Z,96821.84
2023-05-03T03:59:41.606Z,96830.38
2023-05-03T04:00:46.777Z,96835.56
2023-05-03T04:01:48.909Z,96832.84
2023-05-03T04:02:55.556Z,96831.22
2023-05-03T04:03:58.151Z,96833.81
2023-05-03T04:05:03.002Z,96837.31
2023-05-03T04:06:05.655Z,96838.22
2023-05-03T04:07:12.021Z,96839.94
2023-05-03T04:08:14.137Z,96837.44
2023-05-03T04:09:19.101Z,96834.91
2023-05-03T04:10:21.283Z,96835.72
2023-05-03T04:11:26.227Z,96834.03
2023-05-03T04:12:28.873Z,96834.06
2023-05-03T04:13:34.130Z,96834.88
2023-05-03T04:14:38.861Z,96838.28
2023-05-03T04:15:43.895Z,96839.16
2023-05-03T04:16:45.970Z,96840.91
2023-05-03T04:17:51.010Z,96837.53
2023-05-03T04:18:53.334Z,96846.88
2023-05-03T04:19:58.343Z,96843.47
2023-05-03T04:21:00.896Z,96846.88
2023-05-03T04:22:05.968Z,96843.47
2023-05-03T04:23:08.156Z,96845.97
2023-05-03T04:24:14.360Z,96847.41
2023-05-03T04:25:17.510Z,96848.25
2023-05-03T04:26:31.200Z,96852.50
2023-05-03T04:27:34.554Z,96850.81
2023-05-03T04:28:39.606Z,96852.50
2023-05-03T04:29:45.035Z,96855.09
2023-05-03T04:30:50.129Z,96856.75
2023-05-03T04:31:52.394Z,96851.66
2023-05-03T04:33:00.247Z,96852.50
2023-05-03T04:34:05.057Z,96852.38
2023-05-03T04:35:10.768Z,96855.78
2023-05-03T04:36:19.110Z,96856.56
2023-05-03T04:37:22.656Z,96860.88
2023-05-03T04:38:27.380Z,96862.59
2023-05-03T04:39:29.834Z,96864.09
2023-05-03T04:40:34.939Z,96861.59
2023-05-03T04:41:39.791Z,96859.88
2023-05-03T04:42:43.972Z,96858.16
2023-05-03T04:43:49.503Z,96864.94
2023-05-03T04:44:54.618Z,96858.91
2023-05-03T04:45:59.745Z,96859.72
2023-05-03T04:47:03.015Z,96869.94
2023-05-03T04:48:09.561Z,96867.28
2023-05-03T04:49:11.632Z,96870.72
2023-05-03T04:50:16.787Z,96864.75
2023-05-03T04:51:21.558Z,96865.56
2023-05-03T04:52:23.723Z,96866.38
2023-05-03T04:53:29.497Z,96870.66
2023-05-03T04:54:32.549Z,96874.09
2023-05-03T04:55:37.418Z,96873.13
2023-05-03T04:56:39.575Z,96883.41
2023-05-03T04:57:45.814Z,96871.38
2023-05-03T04:58:47.920Z,96871.31
2023-05-03T04:59:54.234Z,96874.66
2023-05-03T05:00:59.007Z,96877.16
2023-05-03T05:02:04.075Z,96871.97
2023-05-03T05:03:06.683Z,96874.47
2023-05-03T05:04:11.918Z,96873.47
2023-05-03T05:05:14.217Z,96872.63
2023-05-03T05:06:18.983Z,96875.09
2023-05-03T05:07:21.168Z,96873.34
2023-05-03T05:08:26.264Z,96870.78
2023-05-03T05:09:31.328Z,96871.59
2023-05-03T05:10:40.376Z,96876.63
2023-05-03T05:11:42.585Z,96874.03
2023-05-03T05:12:47.721Z,96873.97
2023-05-03T05:13:49.997Z,96877.31
2023-05-03T05:14:54.844Z,96875.50
2023-05-03T05:15:59.999Z,96871.16
2023-05-03T05:17:04.952Z,96873.53
2023-05-03T05:18:10.721Z,96876.88
2023-05-03T05:19:13.298Z,96872.50
2023-05-03T05:20:19.071Z,96877.56
2023-05-03T05:21:21.351Z,96872.34
2023-05-03T05:22:26.339Z,96867.03
2023-05-03T05:23:28.484Z,96878.19
2023-05-03T05:24:33.250Z,96874.69
2023-05-03T05:25:35.338Z,96876.38
2023-05-03T05:26:40.228Z,96872.88
2023-05-03T05:27:45.250Z,96871.03
2023-05-03T05:28:48.468Z,96876.06
2023-05-03T05:29:55.424Z,96871.72
2023-05-03T05:31:00.227Z,96880.16
2023-05-03T05:32:06.247Z,96877.47
2023-05-03T05:33:08.818Z,96877.47
2023-05-03T05:34:14.021Z,96874.00
2023-05-03T05:35:17.998Z,96879.09
2023-05-03T05:36:22.736Z,96882.47
2023-05-03T05:37:30.958Z,96885.00
2023-05-03T05:38:33.125Z,96879.81
2023-05-03T05:39:37.882Z,96882.34
2023-05-03T05:40:40.090Z,96888.28
2023-05-03T05:41:44.864Z,96883.84
2023-05-03T05:42:48.768Z,96892.31
2023-05-03T05:43:55.503Z,96890.53
2023-05-03T05:45:00.317Z,96886.06
2023-05-03T05:46:08.627Z,96881.75
2023-05-03T05:47:13.866Z,96887.66
2023-05-03T05:48:16.161Z,96885.06
2023-05-03T05:49:21.574Z,96884.09
2023-05-03T05:50:26.764Z,96881.41
2023-05-03T05:51:32.012Z,96882.13
2023-05-03T05:52:34.215Z,96876.97
2023-05-03T05:53:39.144Z,96879.31
2023-05-03T05:54:43.919Z,96880.91
2023-05-03T05:55:46.070Z,96877.41
2023-05-03T05:56:51.240Z,96878.25
2023-05-03T05:57:53.523Z,96877.31
2023-05-03T05:58:58.680Z,96878.06
2023-05-03T06:00:03.468Z,96883.03
2023-05-03T06:01:11.211Z,96882.22
2023-05-03T06:02:17.113Z,96881.31
2023-05-03T06:03:22.145Z,96870.06
2023-05-03T06:04:27.277Z,96876.13
2023-05-03T06:05:32.237Z,96879.44
2023-05-03T06:06:40.982Z,96875.84
2023-05-03T06:07:43.217Z,96881.00
2023-05-03T06:08:50.388Z,96869.66
2023-05-03T06:09:52.570Z,96877.22
2023-05-03T06:10:57.452Z,96879.63
2023-05-03T06:11:59.504Z,96870.38
2023-05-03T06:13:05.071Z,96871.88
2023-05-03T06:14:09.756Z,96860.53
2023-05-03T06:15:17.736Z,96865.88
2023-05-03T06:16:25.446Z,96864.88
2023-05-03T06:17:27.942Z,96866.63
2023-05-03T06:18:32.829Z,96870.84
2023-05-03T06:19:34.900Z,96871.56
2023-05-03T06:20:39.813Z,96868.88
2023-05-03T06:21:41.971Z,96864.34
2023-05-03T06:22:47.178Z,96867.50
2023-05-03T06:23:49.409Z,96874.19
2023-05-03T06:24:58.176Z,96870.81
2023-05-03T06:26:00.292Z,96869.88
2023-05-03T06:27:05.286Z,96870.63
2023-05-03T06:28:07.357Z,96871.22
2023-05-03T06:29:12.159Z,96871.91
2023-05-03T06:30:16.332Z,96869.16
2023-05-03T06:31:21.531Z,96869.88
2023-05-03T06:32:29.390Z,96869.69
2023-05-03T06:33:34.134Z,96867.69
2023-05-03T06:34:36.556Z,96864.28
2023-05-03T06:35:41.435Z,96871.84
2023-05-03T06:36:46.428Z,96865.63
2023-05-03T06:37:48.684Z,96873.22
2023-05-03T06:38:53.379Z,96859.06
2023-05-03T06:39:55.573Z,96855.66
2023-05-03T06:41:00.286Z,96858.94
2023-05-03T06:42:05.276Z,96862.94
2023-05-03T06:43:07.679Z,96867.25
2023-05-03T06:44:12.642Z,96863.63
2023-05-03T06:45:14.888Z,96860.78
2023-05-03T06:46:21.134Z,96859.63
2023-05-03T06:47:26.100Z,96861.38
2023-05-03T06:48:31.404Z,96859.34
2023-05-03T06:49:36.468Z,96862.53
2023-05-03T06:50:39.465Z,96864.81
2023-05-03T06:51:44.322Z,96862.03
2023-05-03T06:52:49.317Z,96856.16
2023-05-03T06:53:52.450Z,96858.41
2023-05-03T06:54:57.201Z,96852.19
2023-05-03T06:56:03.855Z,96857.16
2023-05-03T06:57:06.275Z,96854.28
2023-05-03T06:58:12.188Z,96845.41
2023-05-03T06:59:17.075Z,96851.97
2023-05-03T07:00:23.584Z,96851.66
2023-05-03T07:01:25.737Z,96851.28
2023-05-03T07:02:33.591Z,96853.09
2023-05-03T07:03:40.955Z,96851.16
2023-05-03T07:04:46.859Z,96843.41
2023-05-03T07:05:49.262Z,96847.41
2023-05-03T07:06:56.704Z,96848.09
2023-05-03T07:07:59.122Z,96839.31
2023-05-03T07:09:05.835Z,96847.41
2023-05-03T07:10:08.643Z,96853.06
2023-05-03T07:11:13.905Z,96846.75
2023-05-03T07:12:16.659Z,96848.19
2023-05-03T07:13:21.674Z,96848.84
2023-05-03T07:14:24.488Z,96854.03
2023-05-03T07:15:29.452Z,96842.75
2023-05-03T07:16:31.665Z,96845.72
2023-05-03T07:17:39.301Z,96844.38
2023-05-03T07:18:41.465Z,96846.78
2023-05-03T07:19:46.216Z,96835.19
2023-05-03T07:20:51.443Z,96836.72
2023-05-03T07:21:54.579Z,96837.22
2023-05-03T07:22:59.872Z,96837.00
2023-05-03T07:24:01.983Z,96830.91
2023-05-03T07:25:12.525Z,96830.78
2023-05-03T07:26:17.524Z,96829.69
2023-05-03T07:27:20.688Z,96831.84
2023-05-03T07:28:26.064Z,96834.09
2023-05-03T07:29:30.090Z,96827.81
2023-05-03T07:30:34.778Z,96827.28
2023-05-03T07:31:39.647Z,96829.63
2023-05-03T07:32:47.173Z,96833.88
2023-05-03T07:33:52.221Z,96823.44
2023-05-03T07:34:54.527Z,96826.34
2023-05-03T07:35:59.316Z,96829.16
2023-05-03T07:37:04.400Z,96829.44
2023-05-03T07:38:09.240Z,96825.50
2023-05-03T07:39:11.382Z,96818.16
2023-05-03T07:40:16.689Z,96815.31
2023-05-03T07:41:19.296Z,96819.31
2023-05-03T07:42:23.932Z,96816.44
2023-05-03T07:43:26.147Z,96818.59
2023-05-03T07:44:31.435Z,96806.84
2023-05-03T07:45:36.291Z,96819.16
2023-05-03T07:46:41.075Z,96810.59
2023-05-03T07:47:48.440Z,96810.41
2023-05-03T07:48:50.691Z,96809.50
2023-05-03T07:49:55.551Z,96806.94
2023-05-03T07:51:00.729Z,96817.94
2023-05-03T07:52:06.080Z,96804.66
2023-05-03T07:53:10.930Z,96802.94
2023-05-03T07:54:13.219Z,96795.06
2023-05-03T07:55:21.578Z,96797.56
2023-05-03T07:56:27.006Z,96780.28
2023-05-03T07:57:32.079Z,96786.53
2023-05-03T07:58:40.554Z,96781.44
2023-05-03T07:59:43.959Z,96786.22
2023-05-03T08:00:48.850Z,96777.50
2023-05-03T08:01:53.711Z,96778.41
2023-05-03T08:03:03.961Z,96772.66
2023-05-03T08:04:09.248Z,96780.56
2023-05-03T08:05:15.895Z,96786.41
2023-05-03T08:06:18.566Z,96771.56
2023-05-03T08:07:23.859Z,96768.28
2023-05-03T08:08:28.807Z,96754.75
2023-05-03T08:09:31.303Z,96747.81
2023-05-03T08:10:38.103Z,96749.16
2023-05-03T08:11:42.335Z,96764.22
2023-05-03T08:12:48.570Z,96773.56
2023-05-03T08:13:53.793Z,96746.88
2023-05-03T08:14:56.738Z,96761.63
2023-05-03T08:16:01.609Z,96757.16
2023-05-03T08:17:08.220Z,96759.38
2023-05-03T08:18:15.725Z,96773.59
2023-05-03T08:19:17.888Z,96766.25
2023-05-03T08:20:23.440Z,96769.69
2023-05-03T08:21:28.827Z,96760.47
2023-05-03T08:22:33.490Z,96765.28
2023-05-03T08:23:38.324Z,96768.19
2023-05-03T08:24:40.754Z,96763.41
2023-05-03T08:25:45.888Z,96766.13
2023-05-03T08:26:49.238Z,96773.03
2023-05-03T08:27:55.829Z,96761.47
2023-05-03T08:28:58.067Z,96757.66
2023-05-03T08:30:04.150Z,96765.66
2023-05-03T08:31:09.646Z,96761.59
2023-05-03T08:32:12.006Z,96773.75
2023-05-03T08:33:19.268Z,96760.91
2023-05-03T08:34:23.971Z,96763.75
2023-05-03T08:35:28.437Z,96768.63
2023-05-03T08:36:36.206Z,96756.72
2023-05-03T08:37:39.664Z,96770.91
2023-05-03T08:38:49.122Z,96758.09
2023-05-03T08:39:54.232Z,96756.44
2023-05-03T08:41:14.754Z,96781.38
2023-05-03T08:42:19.531Z,96776.97
2023-05-03T08:43:27.069Z,96770.97
2023-05-03T08:44:30.026Z,96765.94
2023-05-03T08:45:37.313Z,96766.69
2023-05-03T08:46:39.538Z,96773.94
2023-05-03T08:47:45.320Z,96800.09
2023-05-03T08:48:54.524Z,96785.25
2023-05-03T08:49:58.606Z,96785.09
2023-05-03T08:51:04.904Z,96766.59
2023-05-03T08:52:07.689Z,96771.97
2023-05-03T08:53:12.981Z,96777.91
2023-05-03T08:54:20.792Z,96786.94
2023-05-03T08:55:26.105Z,96783.59
2023-05-03T08:56:35.702Z,96753.47
2023-05-03T08:57:41.505Z,96754.47
2023-05-03T08:58:48.792Z,96746.00
2023-05-03T08:59:54.591Z,96743.34
2023-05-03T09:00:59.470Z,96734.63
2023-05-03T09:02:01.681Z,96727.06
2023-05-03T09:03:07.792Z,96742.81
2023-05-03T09:04:15.647Z,96755.38
2023-05-03T09:05:39.136Z,96759.13
2023-05-03T09:06:44.535Z,96729.75
2023-05-03T09:08:03.989Z,96738.38
2023-05-03T09:09:11.275Z,96730.34
2023-05-03T09:10:26.056Z,96755.44
2023-05-03T09:11:32.892Z,96749.16
2023-05-03T09:12:36.732Z,96774.84
2023-05-03T09:13:41.672Z,96758.16
2023-05-03T09:14:47.070Z,96731.75
2023-05-03T09:15:57.264Z,96738.03
2023-05-03T09:17:14.868Z,96713.97
2023-05-03T09:18:22.887Z,96727.09
2023-05-03T09:19:30.714Z,96706.53
2023-05-03T09:20:39.910Z,96713.47
2023-05-03T09:21:47.460Z,96728.84
2023-05-03T09:22:52.642Z,96723.41
2023-05-03T09:23:57.445Z,96712.50
2023-05-03T09:25:01.208Z,96723.75
2023-05-03T09:26:07.384Z,96727.47
2023-05-03T09:27:21.944Z,96744.28
2023-05-03T09:28:24.211Z,96733.78
2023-05-03T09:29:34.425Z,96732.91
2023-05-03T09:30:37.134Z,96718.47
2023-05-03T09:32:02.132Z,96722.53
2023-05-03T09:33:04.793Z,96712.63
2023-05-03T09:34:25.004Z,96719.91
2023-05-03T09:35:32.895Z,96698.00
2023-05-03T09:36:49.996Z,96703.84
2023-05-03T09:37:54.772Z,96678.16
2023-05-03T09:39:01.544Z,96677.22
2023-05-03T09:40:08.250Z,96667.06
2023-05-03T09:41:13.862Z,96687.47
2023-05-03T09:42:21.156Z,96707.66
2023-05-03T09:43:24.444Z,96693.66
2023-05-03T09:44:44.752Z,96690.47
2023-05-03T09:45:49.773Z,96687.81
2023-05-03T09:47:07.712Z,96697.38
2023-05-03T09:48:13.039Z,96684.97
2023-05-03T09:49:18.304Z,96700.06
2023-05-03T09:50:21.005Z,96697.03
2023-05-03T09:51:28.427Z,96677.94
2023-05-03T09:52:31.372Z,96676.38
2023-05-03T09:53:37.389Z,96648.53
2023-05-03T09:54:42.532Z,96663.94
2023-05-03T09:55:45.028Z,96659.50
2023-05-03T09:56:50.210Z,96666.81
2023-05-03T09:57:55.929Z,96646.25
2023-05-03T09:59:01.248Z,96656.72
2023-05-03T10:00:04.251Z,96659.94
2023-05-03T10:01:10.315Z,96645.78
2023-05-03T10:02:15.133Z,96663.31
2023-05-03T10:03:22.537Z,96664.28
2023-05-03T10:04:29.822Z,96648.88
2023-05-03T10:05:33.636Z,96657.94
2023-05-03T10:06:44.240Z,96661.22
2023-05-03T10:07:46.553Z,96665.88
2023-05-03T10:08:55.260Z,96673.78
2023-05-03T10:09:59.102Z,96668.00
2023-05-03T10:11:07.001Z,96664.66
2023-05-03T10:12:16.649Z,96654.16
2023-05-03T10:13:19.675Z,96671.28
2023-05-03T10:14:25.154Z,96655.00
2023-05-03T10:15:28.857Z,96635.09
2023-05-03T10:16:39.693Z,96620.81
2023-05-03T10:17:48.669Z,96614.34
2023-05-03T10:18:59.464Z,96625.88
2023-05-03T10:20:13.429Z,96642.88
2023-05-03T10:21:28.258Z,96642.34
2023-05-03T10:22:33.333Z,96603.22
2023-05-03T10:23:38.061Z,96595.66
2023-05-03T10:25:13.569Z,96613.31
2023-05-03T10:26:20.073Z,96598.03
2023-05-03T10:27:24.905Z,96605.81
2023-05-03T10:28:32.724Z,96629.38
2023-05-03T10:29:54.888Z,96642.56
2023-05-03T10:30:59.749Z,96626.53
2023-05-03T10:32:04.984Z,96615.41
2023-05-03T10:33:31.885Z,96645.63
2023-05-03T10:34:35.182Z,96638.16
2023-05-03T10:35:43.300Z,96613.22
2023-05-03T10:36:49.782Z,96615.13
2023-05-03T10:38:02.562Z,96608.72
2023-05-03T10:39:05.286Z,96600.25
2023-05-03T10:40:14.011Z,96620.75
2023-05-03T10:41:27.617Z,96617.84
2023-05-03T10:42:31.299Z,96626.16
2023-05-03T10:43:47.157Z,96622.69
2023-05-03T10:44:53.278Z,96639.88
2023-05-03T10:45:59.749Z,96631.44
2023-05-03T10:47:13.278Z,96631.09
2023-05-03T10:48:23.544Z,96617.88
2023-05-03T10:49:28.866Z,96630.19
2023-05-03T10:50:31.100Z,96666.94
2023-05-03T10:51:37.510Z,96650.34
2023-05-03T10:52:47.766Z,96636.56
2023-05-03T10:53:55.316Z,96636.47
2023-05-03T10:55:00.295Z,96644.25
2023-05-03T10:56:03.897Z,96649.69
2023-05-03T10:57:09.067Z,96668.97
2023-05-03T10:58:17.605Z,96672.38
2023-05-03T10:59:23.176Z,96650.25
2023-05-03T11:00:37.561Z,96655.28
2023-05-03T11:01:41.707Z,96653.94
2023-05-03T11:03:11.134Z,96648.91
2023-05-03T11:04:21.986Z,96651.91
2023-05-03T11:05:27.360Z,96667.78
2023-05-03T11:06:36.694Z,96649.75
2023-05-03T11:07:40.012Z,96661.88
2023-05-03T11:08:51.896Z,96658.69
2023-05-03T11:09:59.324Z,96671.09
2023-05-03T11:11:02.764Z,96644.75
2023-05-03T11:12:09.541Z,96666.19
2023-05-03T11:13:15.446Z,96681.63
2023-05-03T11:14:17.882Z,96686.66
2023-05-03T11:15:22.844Z,96678.28
2023-05-03T11:16:26.234Z,96681.66
2023-05-03T11:17:31.274Z,96685.25
2023-05-03T11:18:34.761Z,96682.38
2023-05-03T11:19:40.093Z,96694.91
2023-05-03T11:20:42.355Z,96716.94
2023-05-03T11:21:48.903Z,96676.31
2023-05-03T11:22:51.178Z,96663.75
2023-05-03T11:23:55.934Z,96649.66
2023-05-03T11:25:04.416Z,96676.84
2023-05-03T11:26:08.292Z,96655.69
2023-05-03T11:27:16.746Z,96590.53
2023-05-03T11:28:18.852Z,96593.00
2023-05-03T11:29:23.570Z,96566.63
2023-05-03T11:30:25.754Z,96566.78
2023-05-03T11:31:31.016Z,96567.00
2023-05-03T11:32:36.863Z,96537.72
2023-05-03T11:33:40.383Z,96550.84
2023-05-03T11:34:45.720Z,96545.34
2023-05-03T11:35:50.692Z,96527.72
2023-05-03T11:36:55.445Z,96541.78
2023-05-03T11:37:58.973Z,96529.66
2023-05-03T11:39:06.023Z,96509.72
2023-05-03T11:40:20.078Z,96495.59
2023-05-03T11:41:24.932Z,96505.50
2023-05-03T11:42:28.594Z,96522.50
2023-05-03T11:43:33.813Z,96500.50
2023-05-03T11:44:39.023Z,96459.31
2023-05-03T11:45:44.641Z,96475.00
2023-05-03T11:46:51.108Z,96492.22
2023-05-03T11:47:57.316Z,96461.84
2023-05-03T11:48:59.548Z,96433.75
2023-05-03T11:50:04.562Z,96424.97
2023-05-03T11:51:14.348Z,96458.22
2023-05-03T11:52:24.104Z,96479.81
2023-05-03T11:53:29.667Z,96463.94
2023-05-03T11:54:34.368Z,96461.56
2023-05-03T11:55:42.869Z,96428.72
2023-05-03T11:56:47.832Z,96451.84
2023-05-03T11:57:52.664Z,96443.19
2023-05-03T11:58:59.820Z,96416.06
2023-05-03T12:00:11.393Z,96462.41
2023-05-03T12:01:16.782Z,96451.81
2023-05-03T12:02:22.830Z,96457.44
2023-05-03T12:03:31.963Z,96477.25
2023-05-03T12:04:37.231Z,96449.59
2023-05-03T12:05:44.389Z,96484.38
2023-05-03T12:06:54.299Z,96456.63
2023-05-03T12:08:01.277Z,96471.53
2023-05-03T12:09:08.515Z,96476.09
2023-05-03T12:10:23.681Z,96402.94
2023-05-03T12:11:43.800Z,96426.50
2023-05-03T12:13:00.780Z,96407.47
2023-05-03T12:14:06.869Z,96402.25
2023-05-03T12:15:11.716Z,96408.69
2023-05-03T12:16:20.930Z,96431.56
2023-05-03T12:17:38.615Z,96418.38
2023-05-03T12:18:56.239Z,96350.50
2023-05-03T12:20:51.398Z,96385.69
2023-05-03T12:22:03.999Z,96413.72
2023-05-03T12:23:15.582Z,96417.59
2023-05-03T12:24:20.637Z,96395.00
2023-05-03T12:25:27.629Z,96336.81
2023-05-03T12:26:37.854Z,96358.63
2023-05-03T12:27:40.862Z,96363.38
2023-05-03T12:28:46.029Z,96379.50
2023-05-03T12:29:51.937Z,96359.00
2023-05-03T12:30:54.267Z,96321.47
2023-05-03T12:32:03.724Z,96280.25
2023-05-03T12:33:10.264Z,96346.50
2023-05-03T12:34:32.488Z,96394.63
2023-05-03T12:35:41.367Z,96386.84
2023-05-03T12:36:48.977Z,96377.13
2023-05-03T12:39:01.856Z,96363.66
2023-05-03T12:41:22.772Z,96360.34
2023-05-03T12:42:43.959Z,96353.88
2023-05-03T12:43:52.511Z,96336.47
2023-05-03T12:45:03.995Z,96364.91
2023-05-03T12:47:27.801Z,96372.75
2023-05-03T12:48:34.194Z,96351.91
2023-05-03T12:49:38.674Z,96351.28
2023-05-03T12:50:45.636Z,96343.88
2023-05-03T12:52:02.844Z,96331.59
2023-05-03T12:53:17.535Z,96298.41
2023-05-03T12:54:27.174Z,96287.84
2023-05-03T12:55:35.601Z,96297.75
2023-05-03T12:56:41.589Z,96294.31
2023-05-03T12:58:10.352Z,96300.25
2023-05-03T13:00:25.436Z,96321.75